Time;durP1;ratioP1;P1;durP2;ratioP2;P2;SDS_P1;SDS_P2;PMS_P1;PMS_P2;Temp;Humidity;BMP_temperature;BMP_pressure;BME280_temperature;BME280_humidity;BME280_pressure;Samples;Min_cycle;Max_cycle;Signal;HPM_P1;HPM_P2
2023/05/25 00:01:19;;;;;;;1.07;1.07;;;;;;;;;;7401992;19;20148;-90
2023/05/25 00:03:46;;;;;;;0.43;0.43;;;;;;;;;;7397847;19;20676;-91
2023/05/25 00:06:14;;;;;;;0.60;0.60;;;;;;;;;;7396929;19;20536;-89
2023/05/25 00:08:41;;;;;;;0.60;0.60;;;;;;;;;;7394929;19;20148;-91
2023/05/25 00:11:07;;;;;;;0.80;0.80;;;;;;;;;;7397518;19;20156;-90
2023/05/25 00:13:34;;;;;;;0.60;0.60;;;;;;;;;;7396510;19;20171;-89
2023/05/25 00:16:00;;;;;;;0.73;0.73;;;;;;;;;;7395250;19;20680;-89
2023/05/25 00:18:27;;;;;;;1.13;1.03;;;;;;;;;;7393581;19;20538;-91
2023/05/25 00:20:54;;;;;;;0.50;0.50;;;;;;;;;;7391970;19;20148;-90
2023/05/25 00:23:20;;;;;;;0.70;0.70;;;;;;;;;;7391998;19;20153;-91
2023/05/25 00:25:47;;;;;;;0.43;0.43;;;;;;;;;;7394204;19;20140;-90
2023/05/25 00:28:14;;;;;;;0.70;0.70;;;;;;;;;;7392506;19;20144;-90
2023/05/25 00:30:41;;;;;;;0.53;0.53;;;;;;;;;;7391578;19;20572;-88
2023/05/25 00:33:09;;;;;;;0.70;0.70;;;;;;;;;;7393447;19;20609;-89
2023/05/25 00:35:36;;;;;;;0.87;0.87;;;;;;;;;;7391661;19;20129;-90
2023/05/25 00:38:02;;;;;;;0.70;0.70;;;;;;;;;;7392737;19;20147;-90
2023/05/25 00:40:29;;;;;;;1.60;1.13;;;;;;;;;;7396473;19;20149;-89
2023/05/25 00:42:56;;;;;;;0.70;0.70;;;;;;;;;;7393678;19;20137;-90
2023/05/25 00:45:23;;;;;;;0.70;0.70;;;;;;;;;;7394837;19;20145;-90
2023/05/25 00:47:53;;;;;;;0.67;0.67;;;;;;;;;;7394487;19;20151;-90
2023/05/25 00:50:29;;;;;;;0.40;0.40;;;;;;;;;;7391467;19;21420;-90
2023/05/25 00:52:55;;;;;;;0.40;0.40;;;;;;;;;;7395671;19;20184;-90
2023/05/25 00:55:24;;;;;;;1.07;0.97;;;;;;;;;;7392071;19;20151;-88
2023/05/25 00:57:53;;;;;;;0.40;0.40;;;;;;;;;;7393998;19;20145;-91
2023/05/25 01:00:21;;;;;;;0.43;0.43;;;;;;;;;;7392194;19;20163;-90
2023/05/25 01:02:51;;;;;;;0.93;0.93;;;;;;;;;;7388336;19;20144;-89
2023/05/25 01:05:20;;;;;;;1.07;0.97;;;;;;;;;;7392709;19;20163;-90
2023/05/25 01:07:46;;;;;;;0.43;0.43;;;;;;;;;;7395076;19;20125;-89
2023/05/25 01:10:15;;;;;;;0.40;0.40;;;;;;;;;;7392455;19;20156;-89
2023/05/25 01:12:43;;;;;;;0.77;0.77;;;;;;;;;;7394862;19;20145;-90
2023/05/25 01:15:10;;;;;;;0.93;0.93;;;;;;;;;;7392002;19;20137;-91
2023/05/25 01:17:36;;;;;;;0.93;0.93;;;;;;;;;;7392019;19;20141;-91
2023/05/25 01:20:06;;;;;;;0.80;0.80;;;;;;;;;;7393635;19;20163;-90
2023/05/25 01:22:46;;;;;;;0.47;0.47;;;;;;;;;;7393186;19;20216;-91
2023/05/25 01:25:36;;;;;;;0.40;0.40;;;;;;;;;;7393357;19;20148;-92
2023/05/25 01:28:06;;;;;;;0.70;0.70;;;;;;;;;;7394193;19;20147;-92
2023/05/25 01:30:36;;;;;;;0.30;0.30;;;;;;;;;;7391370;19;20121;-91
2023/05/25 01:33:03;;;;;;;0.50;0.50;;;;;;;;;;7391920;19;20135;-90
2023/05/25 01:35:30;;;;;;;0.90;0.90;;;;;;;;;;7391211;19;20220;-91
2023/05/25 01:37:57;;;;;;;0.50;0.50;;;;;;;;;;7390286;19;20137;-91
2023/05/25 01:40:24;;;;;;;0.40;0.40;;;;;;;;;;7392323;19;20161;-90
2023/05/25 01:42:51;;;;;;;0.30;0.30;;;;;;;;;;7393415;19;20212;-92
2023/05/25 01:45:18;;;;;;;0.30;0.30;;;;;;;;;;7390394;19;20139;-92
2023/05/25 01:47:57;;;;;;;0.50;0.50;;;;;;;;;;7396015;19;20137;-90
2023/05/25 01:50:36;;;;;;;0.70;0.70;;;;;;;;;;7389854;19;20197;-93
2023/05/25 01:53:10;;;;;;;0.50;0.50;;;;;;;;;;7389811;19;20612;-89
2023/05/25 01:55:42;;;;;;;0.30;0.30;;;;;;;;;;7400102;19;20136;-90
2023/05/25 01:58:10;;;;;;;0.60;0.60;;;;;;;;;;7399154;19;20659;-92
2023/05/25 02:00:38;;;;;;;0.40;0.40;;;;;;;;;;7399828;19;20148;-92
2023/05/25 02:03:05;;;;;;;1.07;0.80;;;;;;;;;;7399773;19;20144;-90
2023/05/25 02:05:32;;;;;;;0.80;0.80;;;;;;;;;;7396876;19;20143;-91
2023/05/25 02:07:58;;;;;;;0.77;0.77;;;;;;;;;;7399571;19;20130;-91
2023/05/25 02:10:25;;;;;;;0.60;0.60;;;;;;;;;;7395762;19;20555;-91
2023/05/25 02:12:52;;;;;;;0.70;0.70;;;;;;;;;;7398967;19;20593;-89
2023/05/25 02:15:20;;;;;;;0.57;0.57;;;;;;;;;;7398808;19;20661;-91
2023/05/25 02:17:47;;;;;;;0.70;0.70;;;;;;;;;;7397247;19;20148;-91
2023/05/25 02:20:13;;;;;;;0.60;0.60;;;;;;;;;;7395010;19;20169;-91
2023/05/25 02:22:40;;;;;;;0.67;0.67;;;;;;;;;;7394579;19;20145;-92
2023/05/25 02:25:11;;;;;;;5.63;1.40;;;;;;;;;;7395420;19;20589;-91
2023/05/25 02:27:38;;;;;;;0.30;0.30;;;;;;;;;;7397851;19;20148;-91
2023/05/25 02:30:05;;;;;;;0.57;0.57;;;;;;;;;;7394058;19;20171;-91
2023/05/25 02:32:32;;;;;;;0.70;0.70;;;;;;;;;;7397552;19;20128;-89
2023/05/25 02:34:59;;;;;;;1.03;1.03;;;;;;;;;;7396719;19;20151;-91
2023/05/25 02:37:25;;;;;;;0.40;0.40;;;;;;;;;;7398431;19;20147;-91
2023/05/25 02:39:52;;;;;;;0.50;0.50;;;;;;;;;;7398965;19;20153;-88
2023/05/25 02:42:19;;;;;;;0.57;0.57;;;;;;;;;;7398138;19;20143;-92
2023/05/25 02:44:47;;;;;;;0.43;0.43;;;;;;;;;;7396913;19;20136;-91
2023/05/25 02:47:15;;;;;;;0.43;0.43;;;;;;;;;;7399196;19;20157;-89
2023/05/25 02:49:41;;;;;;;0.77;0.70;;;;;;;;;;7397463;19;20183;-90
2023/05/25 02:52:08;;;;;;;0.53;0.40;;;;;;;;;;7400988;19;20144;-90
2023/05/25 02:54:35;;;;;;;0.30;0.30;;;;;;;;;;7400322;19;20136;-90
2023/05/25 02:57:03;;;;;;;1.30;1.03;;;;;;;;;;7398554;19;20152;-91
2023/05/25 02:59:30;;;;;;;1.50;0.97;;;;;;;;;;7397370;19;20153;-92
2023/05/25 03:01:57;;;;;;;0.60;0.40;;;;;;;;;;7396631;19;20129;-91
2023/05/25 03:04:25;;;;;;;0.70;0.70;;;;;;;;;;7396711;19;20145;-92
2023/05/25 03:06:51;;;;;;;0.60;0.60;;;;;;;;;;7397946;19;20144;-91
2023/05/25 03:09:18;;;;;;;0.73;0.73;;;;;;;;;;7396978;19;20149;-92
2023/05/25 03:11:45;;;;;;;0.40;0.40;;;;;;;;;;7405389;19;20181;-91
2023/05/25 03:14:12;;;;;;;0.60;0.60;;;;;;;;;;7423928;19;20157;-95
2023/05/25 03:16:38;;;;;;;1.13;1.07;;;;;;;;;;7428443;19;20173;-93
2023/05/25 03:19:06;;;;;;;0.40;0.40;;;;;;;;;;7432791;19;20164;-94
2023/05/25 03:21:32;;;;;;;0.60;0.60;;;;;;;;;;7415046;19;20157;-91
2023/05/25 03:24:00;;;;;;;0.53;0.53;;;;;;;;;;7395891;19;20141;-90
2023/05/25 03:26:27;;;;;;;0.70;0.70;;;;;;;;;;7398784;19;20144;-91
2023/05/25 03:28:54;;;;;;;0.77;0.77;;;;;;;;;;7401557;19;20164;-91
2023/05/25 03:31:21;;;;;;;0.50;0.50;;;;;;;;;;7399749;19;20141;-91
2023/05/25 03:33:48;;;;;;;0.30;0.30;;;;;;;;;;7398762;19;20492;-91
2023/05/25 03:36:16;;;;;;;0.57;0.57;;;;;;;;;;7398974;19;20672;-90
2023/05/25 03:38:43;;;;;;;0.30;0.30;;;;;;;;;;7395647;19;20161;-91
2023/05/25 03:41:10;;;;;;;0.60;0.60;;;;;;;;;;7394734;19;20542;-91
2023/05/25 03:43:37;;;;;;;0.60;0.60;;;;;;;;;;7393730;19;20140;-90
2023/05/25 03:46:03;;;;;;;0.63;0.63;;;;;;;;;;7395795;19;20160;-90
2023/05/25 03:48:30;;;;;;;0.40;0.40;;;;;;;;;;7393078;19;20173;-91
2023/05/25 03:50:57;;;;;;;0.40;0.40;;;;;;;;;;7395199;19;20137;-91
2023/05/25 03:53:23;;;;;;;0.70;0.67;;;;;;;;;;7395616;19;20145;-91
2023/05/25 03:55:50;;;;;;;0.73;0.43;;;;;;;;;;7397148;19;20144;-90
2023/05/25 03:58:17;;;;;;;1.33;1.07;;;;;;;;;;7396117;19;20159;-89
2023/05/25 04:00:44;;;;;;;1.00;1.00;;;;;;;;;;7393909;19;20132;-90
2023/05/25 04:03:11;;;;;;;0.40;0.40;;;;;;;;;;7394901;19;20132;-90
2023/05/25 04:05:38;;;;;;;0.93;0.93;;;;;;;;;;7392860;19;20212;-90
2023/05/25 04:08:07;;;;;;;0.30;0.30;;;;;;;;;;7395039;19;20144;-91
2023/05/25 04:10:34;;;;;;;1.77;1.67;;;;;;;;;;7387709;19;20157;-91
2023/05/25 04:13:01;;;;;;;1.63;1.53;;;;;;;;;;7386693;19;20149;-88
2023/05/25 04:15:29;;;;;;;0.60;0.60;;;;;;;;;;7389578;19;20837;-90
2023/05/25 04:17:58;;;;;;;0.30;0.30;;;;;;;;;;7386131;19;20184;-91
2023/05/25 04:20:25;;;;;;;0.93;0.93;;;;;;;;;;7388797;19;20165;-90
2023/05/25 04:22:52;;;;;;;1.03;0.93;;;;;;;;;;7389514;19;20567;-89
2023/05/25 04:25:20;;;;;;;0.57;0.57;;;;;;;;;;7396857;19;20141;-91
2023/05/25 04:27:50;;;;;;;0.80;0.80;;;;;;;;;;7395628;19;20152;-90
2023/05/25 04:30:16;;;;;;;0.93;0.93;;;;;;;;;;7396068;19;21038;-89
2023/05/25 04:32:44;;;;;;;0.50;0.50;;;;;;;;;;7393338;19;20496;-91
2023/05/25 04:35:13;;;;;;;0.63;0.63;;;;;;;;;;7395570;19;20141;-90
2023/05/25 04:37:42;;;;;;;8.10;1.23;;;;;;;;;;7394140;19;20229;-90
2023/05/25 04:40:12;;;;;;;0.50;0.50;;;;;;;;;;7395072;19;20174;-89
2023/05/25 04:42:40;;;;;;;0.40;0.40;;;;;;;;;;7393708;19;20136;-89
2023/05/25 04:45:10;;;;;;;0.90;0.90;;;;;;;;;;7390017;19;20601;-91
2023/05/25 04:47:39;;;;;;;0.30;0.30;;;;;;;;;;7390747;19;20144;-90
2023/05/25 04:50:08;;;;;;;0.30;0.30;;;;;;;;;;7384983;19;20168;-91
2023/05/25 04:52:36;;;;;;;1.37;1.27;;;;;;;;;;7383178;19;20140;-91
2023/05/25 04:55:03;;;;;;;0.30;0.30;;;;;;;;;;7381670;19;20137;-91
2023/05/25 04:57:30;;;;;;;1.90;1.27;;;;;;;;;;7380714;19;20131;-91
2023/05/25 04:59:57;;;;;;;0.50;0.50;;;;;;;;;;7381531;19;20156;-90
2023/05/25 05:02:24;;;;;;;0.70;0.70;;;;;;;;;;7379598;19;20137;-90
2023/05/25 05:04:51;;;;;;;0.80;0.80;;;;;;;;;;7384588;19;20132;-91
2023/05/25 05:07:21;;;;;;;1.00;1.00;;;;;;;;;;7379500;19;20133;-90
2023/05/25 05:09:48;;;;;;;0.47;0.47;;;;;;;;;;7380461;19;20159;-92
2023/05/25 05:12:15;;;;;;;1.00;1.00;;;;;;;;;;7389381;19;20140;-91
2023/05/25 05:14:42;;;;;;;0.40;0.40;;;;;;;;;;7387914;19;20141;-91
2023/05/25 05:17:08;;;;;;;0.40;0.40;;;;;;;;;;7386800;19;20148;-91
2023/05/25 05:19:35;;;;;;;1.13;0.40;;;;;;;;;;7386073;19;20153;-91
2023/05/25 05:22:02;;;;;;;0.93;0.93;;;;;;;;;;7390901;19;20489;-91
2023/05/25 05:24:29;;;;;;;0.53;0.53;;;;;;;;;;7387500;19;20204;-92
2023/05/25 05:26:56;;;;;;;0.40;0.40;;;;;;;;;;7390684;19;20136;-90
2023/05/25 05:29:27;;;;;;;0.40;0.40;;;;;;;;;;7392703;19;20156;-91
2023/05/25 05:31:55;;;;;;;0.40;0.40;;;;;;;;;;7394276;19;20133;-92
2023/05/25 05:34:22;;;;;;;0.60;0.60;;;;;;;;;;7398389;19;20129;-91
2023/05/25 05:36:49;;;;;;;0.50;0.50;;;;;;;;;;7398823;19;20695;-90
2023/05/25 05:39:25;;;;;;;0.63;0.63;;;;;;;;;;7395884;19;20188;-89
2023/05/25 05:41:52;;;;;;;0.40;0.40;;;;;;;;;;7395800;19;20144;-90
2023/05/25 05:44:21;;;;;;;0.43;0.43;;;;;;;;;;7396506;19;20137;-89
2023/05/25 05:46:58;;;;;;;0.50;0.50;;;;;;;;;;7398189;19;20173;-89
2023/05/25 05:49:29;;;;;;;0.60;0.60;;;;;;;;;;7392879;19;20165;-91
2023/05/25 05:51:59;;;;;;;0.50;0.47;;;;;;;;;;7395166;19;20161;-90
2023/05/25 05:54:26;;;;;;;0.97;0.70;;;;;;;;;;7394307;19;20621;-90
2023/05/25 05:56:53;;;;;;;1.03;1.03;;;;;;;;;;7400818;19;20133;-92
2023/05/25 05:59:20;;;;;;;2.07;0.87;;;;;;;;;;7396195;19;20157;-91
2023/05/25 06:01:47;;;;;;;0.30;0.30;;;;;;;;;;7393881;19;20164;-90
2023/05/25 06:04:14;;;;;;;0.30;0.30;;;;;;;;;;7399593;19;20140;-91
2023/05/25 06:06:44;;;;;;;3.07;0.77;;;;;;;;;;7384367;19;20469;-90
2023/05/25 06:09:11;;;;;;;0.67;0.60;;;;;;;;;;7386782;19;20156;-88
2023/05/25 06:11:38;;;;;;;3.90;0.80;;;;;;;;;;7394098;19;20140;-90
2023/05/25 06:14:05;;;;;;;1.03;1.03;;;;;;;;;;7386677;19;20593;-90
2023/05/25 06:16:32;;;;;;;0.70;0.70;;;;;;;;;;7395962;19;20129;-88
2023/05/25 06:18:59;;;;;;;0.90;0.90;;;;;;;;;;7396441;19;20155;-90
2023/05/25 06:21:25;;;;;;;0.80;0.80;;;;;;;;;;7399525;19;20234;-92
2023/05/25 06:23:53;;;;;;;1.10;1.07;;;;;;;;;;7403720;19;20167;-92
2023/05/25 06:26:20;;;;;;;0.73;0.60;;;;;;;;;;7414463;19;20176;-91
2023/05/25 06:28:48;;;;;;;0.70;0.70;;;;;;;;;;7414312;19;20141;-91
2023/05/25 06:31:15;;;;;;;0.83;0.83;;;;;;;;;;7413965;19;20234;-91
2023/05/25 06:33:41;;;;;;;1.17;1.07;;;;;;;;;;7412023;19;20139;-88
2023/05/25 06:36:09;;;;;;;0.83;0.83;;;;;;;;;;7401167;19;20137;-91
2023/05/25 06:38:36;;;;;;;0.50;0.50;;;;;;;;;;7394918;19;20165;-91
2023/05/25 06:41:04;;;;;;;0.47;0.47;;;;;;;;;;7392440;19;20137;-92
2023/05/25 06:43:31;;;;;;;0.47;0.47;;;;;;;;;;7392692;19;20132;-91
2023/05/25 06:45:58;;;;;;;0.33;0.33;;;;;;;;;;7393795;19;20164;-92
2023/05/25 06:48:24;;;;;;;0.60;0.60;;;;;;;;;;7393171;19;20522;-91
2023/05/25 06:50:51;;;;;;;1.57;1.43;;;;;;;;;;7390026;19;20468;-91
2023/05/25 06:53:18;;;;;;;0.80;0.80;;;;;;;;;;7392789;19;20169;-89
2023/05/25 06:55:44;;;;;;;0.77;0.77;;;;;;;;;;7392340;19;20616;-90
2023/05/25 06:58:12;;;;;;;1.23;1.00;;;;;;;;;;7390445;19;20545;-90
2023/05/25 07:00:38;;;;;;;1.27;0.67;;;;;;;;;;7393109;19;20140;-90
2023/05/25 07:03:05;;;;;;;0.63;0.63;;;;;;;;;;7392742;19;20136;-90
2023/05/25 07:05:31;;;;;;;1.00;1.00;;;;;;;;;;7392772;19;20597;-90
2023/05/25 07:07:58;;;;;;;0.60;0.60;;;;;;;;;;7386549;19;20492;-90
2023/05/25 07:10:25;;;;;;;0.40;0.40;;;;;;;;;;7389868;19;20511;-91
2023/05/25 07:12:52;;;;;;;0.57;0.57;;;;;;;;;;7394889;19;20223;-91
2023/05/25 07:15:20;;;;;;;0.52;0.52;;;;;;;;;;7392460;19;20529;-91
2023/05/25 07:17:47;;;;;;;0.87;0.87;;;;;;;;;;7391297;19;20137;-91
2023/05/25 07:20:13;;;;;;;0.90;0.90;;;;;;;;;;7390089;19;20172;-89
2023/05/25 07:22:42;;;;;;;1.10;1.10;;;;;;;;;;7388681;19;20144;-90
2023/05/25 07:25:09;;;;;;;0.40;0.40;;;;;;;;;;7393680;19;20125;-89
2023/05/25 07:27:35;;;;;;;0.60;0.60;;;;;;;;;;7385464;19;20159;-90
2023/05/25 07:30:03;;;;;;;1.90;1.00;;;;;;;;;;7390083;19;20171;-88
2023/05/25 07:32:29;;;;;;;1.63;1.50;;;;;;;;;;7396053;19;20650;-89
2023/05/25 07:34:56;;;;;;;1.25;1.15;;;;;;;;;;7402587;19;20184;-88
2023/05/25 07:37:23;;;;;;;1.00;1.00;;;;;;;;;;7403854;19;20141;-90
2023/05/25 07:39:49;;;;;;;0.98;0.90;;;;;;;;;;7397851;19;20172;-90
2023/05/25 07:42:19;;;;;;;2.15;1.30;;;;;;;;;;7396156;19;20157;-91
2023/05/25 07:44:47;;;;;;;0.82;0.82;;;;;;;;;;7395848;19;20148;-89
2023/05/25 07:47:14;;;;;;;0.63;0.63;;;;;;;;;;7394248;19;20158;-89
2023/05/25 07:49:41;;;;;;;0.68;0.68;;;;;;;;;;7396417;19;20153;-89
2023/05/25 07:52:08;;;;;;;1.05;0.95;;;;;;;;;;7393963;19;20151;-89
2023/05/25 07:54:38;;;;;;;0.93;0.93;;;;;;;;;;7394422;19;20204;-90
2023/05/25 07:57:06;;;;;;;1.95;1.00;;;;;;;;;;7394861;19;20141;-90
2023/05/25 07:59:33;;;;;;;1.00;1.00;;;;;;;;;;7396427;19;20189;-91
2023/05/25 08:02:00;;;;;;;0.70;0.68;;;;;;;;;;7397222;19;20133;-89
2023/05/25 08:04:27;;;;;;;1.10;1.10;;;;;;;;;;7398068;19;20161;-89
2023/05/25 08:06:54;;;;;;;0.90;0.90;;;;;;;;;;7395722;19;20151;-90
2023/05/25 08:09:20;;;;;;;1.15;1.05;;;;;;;;;;7396639;19;20623;-89
2023/05/25 08:11:47;;;;;;;0.90;0.90;;;;;;;;;;7403446;19;20133;-88
2023/05/25 08:14:15;;;;;;;2.25;1.38;;;;;;;;;;7402370;19;20155;-89
2023/05/25 08:16:41;;;;;;;0.60;0.60;;;;;;;;;;7399309;19;20742;-89
2023/05/25 08:19:08;;;;;;;1.17;1.08;;;;;;;;;;7397467;19;20156;-94
2023/05/25 08:21:36;;;;;;;1.13;1.13;;;;;;;;;;7393886;19;20132;-91
2023/05/25 08:24:03;;;;;;;0.88;0.88;;;;;;;;;;7391929;19;20133;-88
2023/05/25 08:26:31;;;;;;;1.15;1.05;;;;;;;;;;7391047;19;20137;-88
2023/05/25 08:29:11;;;;;;;1.80;0.75;;;;;;;;;;7401921;19;20176;-88
2023/05/25 08:31:37;;;;;;;1.40;1.33;;;;;;;;;;7400024;19;20137;-88
2023/05/25 08:34:04;;;;;;;0.98;0.95;;;;;;;;;;7404992;19;20141;-88
2023/05/25 08:36:34;;;;;;;0.63;0.63;;;;;;;;;;7406895;19;20212;-87
2023/05/25 08:39:03;;;;;;;1.00;1.00;;;;;;;;;;7404695;19;20192;-89
2023/05/25 08:41:31;;;;;;;0.85;0.85;;;;;;;;;;7399317;19;20129;-89
2023/05/25 08:43:57;;;;;;;1.30;1.20;;;;;;;;;;7391133;19;20140;-89
2023/05/25 08:46:31;;;;;;;0.90;0.90;;;;;;;;;;7389216;19;20141;-89
2023/05/25 08:49:10;;;;;;;1.42;1.33;;;;;;;;;;7414867;19;20193;-87
2023/05/25 08:51:41;;;;;;;0.82;0.82;;;;;;;;;;7424612;19;20132;-87
2023/05/25 08:54:11;;;;;;;4.72;1.02;;;;;;;;;;7422478;19;20634;-87
2023/05/25 08:57:19;;;;;;;0.52;0.52;;;;;;;;;;7409338;19;20144;-90
2023/05/25 08:59:52;;;;;;;1.77;0.70;;;;;;;;;;7376781;19;20824;-89
2023/05/25 09:02:53;;;;;;;1.23;1.10;;;;;;;;;;7390550;19;20133;-89
2023/05/25 09:05:21;;;;;;;2.28;1.27;;;;;;;;;;7397664;19;20146;-89
2023/05/25 09:07:48;;;;;;;0.50;0.50;;;;;;;;;;7401742;19;20234;-89
2023/05/25 09:10:15;;;;;;;1.85;1.08;;;;;;;;;;7394327;19;20168;-89
2023/05/25 09:12:42;;;;;;;1.00;1.00;;;;;;;;;;7409058;19;20131;-88
2023/05/25 09:15:10;;;;;;;0.88;0.88;;;;;;;;;;7410960;19;20139;-89
2023/05/25 09:17:37;;;;;;;0.88;0.88;;;;;;;;;;7409367;19;20133;-87
2023/05/25 09:20:04;;;;;;;0.75;0.75;;;;;;;;;;7402165;19;20152;-90
2023/05/25 09:22:31;;;;;;;0.57;0.57;;;;;;;;;;7410375;19;20152;-88
2023/05/25 09:24:58;;;;;;;2.55;1.38;;;;;;;;;;7412652;19;20148;-89
2023/05/25 09:27:24;;;;;;;0.98;0.98;;;;;;;;;;7394571;19;20141;-89
2023/05/25 15:03:45;;;;;;;1.25;1.15;;;;;;;;;;7404986;19;20166;-88
2023/05/25 15:06:52;;;;;;;0.85;0.85;;;;;;;;;;7401242;19;20174;-88
2023/05/25 15:13:01;;;;;;;0.68;0.68;;;;;;;;;;7395304;19;20670;-90
2023/05/25 15:15:28;;;;;;;1.88;1.77;;;;;;;;;;7396348;19;20701;-91
2023/05/25 15:17:55;;;;;;;0.82;0.82;;;;;;;;;;7400555;19;20140;-90
2023/05/25 15:20:35;;;;;;;0.98;0.98;;;;;;;;;;7394712;19;20163;-91
2023/05/25 15:27:26;;;;;;;0.50;0.50;;;;;;;;;;7396058;19;20122;-91
2023/05/25 15:29:53;;;;;;;0.77;0.77;;;;;;;;;;7395153;19;20212;-93
2023/05/25 15:32:19;;;;;;;0.95;0.95;;;;;;;;;;7395083;19;20191;-89
2023/05/25 15:34:52;;;;;;;0.82;0.82;;;;;;;;;;7400007;19;20140;-90
2023/05/25 15:38:13;;;;;;;1.35;1.15;;;;;;;;;;7398851;19;20164;-91
2023/05/25 15:40:41;;;;;;;1.63;1.52;;;;;;;;;;7401630;19;20617;-90
2023/05/25 15:43:08;;;;;;;1.35;1.35;;;;;;;;;;7404043;19;20161;-90
2023/05/25 15:45:42;;;;;;;1.90;1.80;;;;;;;;;;7396386;19;20149;-91
2023/05/25 15:48:24;;;;;;;1.67;1.58;;;;;;;;;;7396560;19;20701;-90
2023/05/25 15:50:59;;;;;;;1.73;1.63;;;;;;;;;;7400886;19;20156;-91
2023/05/25 15:53:26;;;;;;;1.52;1.42;;;;;;;;;;7401591;19;20143;-90
2023/05/25 15:55:53;;;;;;;1.52;1.42;;;;;;;;;;7393565;19;20141;-91
2023/05/25 15:58:19;;;;;;;1.00;1.00;;;;;;;;;;7393128;19;20168;-90
2023/05/25 16:00:46;;;;;;;1.15;1.13;;;;;;;;;;7393423;19;20578;-90
2023/05/25 16:53:28;;;;;;;1.20;1.15;;;;;;;;;;7401135;19;20144;-87
2023/05/25 16:59:31;;;;;;;1.40;1.33;;;;;;;;;;7385972;19;20136;-89
2023/05/25 17:02:55;;;;;;;0.90;0.82;;;;;;;;;;7382467;19;20140;-88
2023/05/25 17:05:33;;;;;;;1.30;1.23;;;;;;;;;;7395320;19;20156;-87
2023/05/25 17:08:35;;;;;;;0.65;0.60;;;;;;;;;;7397881;19;20136;-87
2023/05/25 17:11:03;;;;;;;0.75;0.75;;;;;;;;;;7404335;19;20140;-87
2023/05/25 17:13:30;;;;;;;0.77;0.77;;;;;;;;;;7399607;19;20617;-85
2023/05/25 17:15:57;;;;;;;0.82;0.82;;;;;;;;;;7394990;19;20487;-87
2023/05/25 17:18:27;;;;;;;0.95;0.95;;;;;;;;;;7395836;19;20152;-88
2023/05/25 17:21:16;;;;;;;1.17;1.08;;;;;;;;;;7395566;19;20603;-90
2023/05/25 17:23:43;;;;;;;0.90;0.90;;;;;;;;;;7395917;19;20680;-88
2023/05/25 17:26:09;;;;;;;3.80;1.45;;;;;;;;;;7401144;19;20145;-87
2023/05/25 17:28:36;;;;;;;0.90;0.90;;;;;;;;;;7403347;19;20149;-87
2023/05/25 17:31:03;;;;;;;1.10;1.10;;;;;;;;;;7401487;19;20665;-88
2023/05/25 17:33:30;;;;;;;0.80;0.80;;;;;;;;;;7385232;19;20158;-88
2023/05/25 17:35:56;;;;;;;0.70;0.70;;;;;;;;;;7404451;19;20143;-87
2023/05/25 17:38:24;;;;;;;1.25;1.13;;;;;;;;;;7396487;19;20594;-87
2023/05/25 17:40:51;;;;;;;1.63;1.52;;;;;;;;;;7403148;19;20141;-89
2023/05/25 17:43:18;;;;;;;1.00;1.00;;;;;;;;;;7401695;19;20478;-89
2023/05/25 17:45:45;;;;;;;0.52;0.50;;;;;;;;;;7399792;19;20144;-90
2023/05/25 17:48:12;;;;;;;1.48;0.95;;;;;;;;;;7389513;19;20153;-90
2023/05/25 17:50:39;;;;;;;0.60;0.60;;;;;;;;;;7393460;19;20585;-89
2023/05/25 17:53:06;;;;;;;0.80;0.80;;;;;;;;;;7397520;19;20133;-90
2023/05/25 17:55:33;;;;;;;0.82;0.82;;;;;;;;;;7397398;19;20135;-90
2023/05/25 17:57:59;;;;;;;0.93;0.93;;;;;;;;;;7397468;19;20140;-90
2023/05/25 18:00:26;;;;;;;1.13;1.13;;;;;;;;;;7397458;19;20156;-91
2023/05/25 18:02:53;;;;;;;0.93;0.93;;;;;;;;;;7404479;19;20144;-91
2023/05/25 18:05:20;;;;;;;0.63;0.63;;;;;;;;;;7397619;19;20130;-92
2023/05/25 18:07:46;;;;;;;0.65;0.65;;;;;;;;;;7395306;19;20157;-92
2023/05/25 18:10:13;;;;;;;1.75;0.80;;;;;;;;;;7395801;19;20799;-92
2023/05/25 18:12:40;;;;;;;1.08;1.08;;;;;;;;;;7399258;19;20145;-92
2023/05/25 18:15:07;;;;;;;1.17;1.17;;;;;;;;;;7416276;19;20133;-89
2023/05/25 18:17:37;;;;;;;1.35;1.25;;;;;;;;;;7409977;19;20188;-86
2023/05/25 18:20:05;;;;;;;1.30;0.95;;;;;;;;;;7410286;19;20643;-91
2023/05/25 18:22:31;;;;;;;1.30;0.93;;;;;;;;;;7395056;19;20144;-91
2023/05/25 18:24:59;;;;;;;0.80;0.80;;;;;;;;;;7396003;19;20522;-91
2023/05/25 18:27:25;;;;;;;1.60;0.88;;;;;;;;;;7399994;19;20168;-90
2023/05/25 18:29:52;;;;;;;0.60;0.60;;;;;;;;;;7397031;19;20164;-91
2023/05/25 18:32:19;;;;;;;0.70;0.70;;;;;;;;;;7390934;19;20715;-90
2023/05/25 18:34:47;;;;;;;1.25;1.15;;;;;;;;;;7393041;19;20137;-90
2023/05/25 18:37:23;;;;;;;0.77;0.77;;;;;;;;;;7391395;19;20508;-90
2023/05/25 18:39:54;;;;;;;0.60;0.60;;;;;;;;;;7414435;19;20169;-90
2023/05/25 18:42:20;;;;;;;0.88;0.88;;;;;;;;;;7412705;19;20144;-90
2023/05/25 18:44:50;;;;;;;2.25;1.55;;;;;;;;;;7404361;19;20137;-91
2023/05/25 18:47:21;;;;;;;1.20;0.98;;;;;;;;;;7391871;19;20655;-90
2023/05/25 18:50:09;;;;;;;0.82;0.82;;;;;;;;;;7389344;19;20284;-90
2023/05/25 18:52:37;;;;;;;1.15;1.15;;;;;;;;;;7391763;19;20660;-90
2023/05/25 18:55:05;;;;;;;2.60;1.63;;;;;;;;;;7395282;19;20593;-90
2023/05/25 18:57:32;;;;;;;0.70;0.70;;;;;;;;;;7388303;19;20164;-90
2023/05/25 19:10:59;;;;;;;0.73;0.73;;;;;;;;;;7406145;19;20162;-93
2023/05/25 19:17:47;;;;;;;0.70;0.70;;;;;;;;;;7400649;19;20153;-93
2023/05/25 20:27:36;;;;;;;2.08;1.25;;;;;;;;;;7397657;19;20137;-91
2023/05/25 20:30:07;;;;;;;1.33;1.33;;;;;;;;;;7390787;19;20168;-91
2023/05/25 20:32:33;;;;;;;1.40;1.30;;;;;;;;;;7394039;19;20136;-90
2023/05/25 20:35:00;;;;;;;1.17;1.17;;;;;;;;;;7385838;19;20540;-92
2023/05/25 20:37:27;;;;;;;1.05;1.05;;;;;;;;;;7391205;19;20141;-91
